Startpagina
METAR-TAF:

METAR-TAF

Vliegvelden :

Koeweit, Koeweit

breedte: 29-13N, lengte: 047-59E, hoogte: 55 m

Actueel weer

Dit bericht is 16 minuten geleden gemaakt, om 21:00 UTC
Weinig wind
Temperatuur 10°C
Vochtigheid 53%
Druk 1020 hPa
Zicht 10 km of meer
geen wolken onder 1500 m en geen cumulonimbus

METAR: OKBK 162100Z 00000KT CAVOK 10/01 Q1020 NOSIG

Tijdstip: 00:16 (21:16 UTC)

Verwachting

Dit bericht is 10 uur en het 31 minuten geleden gemaakt, om 10:45 UTC
Verwachting geldig van 16 om 12 UTC tot 17 om 18 UTC
Wind 12 kt uit het noordnoordwesten
Zicht: 7000 m
Onbewolkt

TAF: OKBK 161045Z 1612/1718 34012KT 7000 SKC

Waarnemingen en weersverwachtingen van meer dan 4000 vliegvelden (METAR en TAF).

De beschikbare stations zijn de gele en rode punten op de kaart.

Ga met uw muis naar het station om de naam te zien.

Klik dan om waarnemingen en weersverwachtingen te zien.

kaart wijzigen: klik op de groene knoppen met een zwart kruis om in te zoomen, op de groene knop met een streepje om uit te zoomen of op de groene pijlen voor aangrenzende kaarten.


METAR-TAF: